createdAt,value
2023-04-15T00:00:17.792Z,4.20
2023-04-15T00:01:11.904Z,4.23
2023-04-15T00:02:14.342Z,4.23
2023-04-15T00:03:08.849Z,4.22
2023-04-15T00:04:00.532Z,4.24
2023-04-15T00:04:52.171Z,4.19
2023-04-15T00:05:43.680Z,4.17
2023-04-15T00:06:37.527Z,4.18
2023-04-15T00:07:29.611Z,4.19
2023-04-15T00:08:21.090Z,4.19
2023-04-15T00:09:12.561Z,4.16
2023-04-15T00:10:05.376Z,4.13
2023-04-15T00:11:05.651Z,4.11
2023-04-15T00:11:57.655Z,4.05
2023-04-15T00:12:49.200Z,4.05
2023-04-15T00:13:43.981Z,4.04
2023-04-15T00:14:38.681Z,4.07
2023-04-15T00:15:30.169Z,4.05
2023-04-15T00:16:21.844Z,4.02
2023-04-15T00:17:13.489Z,3.97
2023-04-15T00:18:04.841Z,3.99
2023-04-15T00:18:56.845Z,3.96
2023-04-15T00:19:48.308Z,3.93
2023-04-15T00:20:39.929Z,3.93
2023-04-15T00:21:33.902Z,3.91
2023-04-15T00:22:26.797Z,3.94
2023-04-15T00:23:18.702Z,3.92
2023-04-15T00:24:10.120Z,3.86
2023-04-15T00:25:02.124Z,3.89
2023-04-15T00:25:53.625Z,3.94
2023-04-15T00:26:45.041Z,3.91
2023-04-15T00:27:36.763Z,3.86
2023-04-15T00:28:28.495Z,3.85
2023-04-15T00:29:22.595Z,3.87
2023-04-15T00:30:14.084Z,3.86
2023-04-15T00:31:05.660Z,3.85
2023-04-15T00:32:00.196Z,3.85
2023-04-15T00:32:53.990Z,3.85
2023-04-15T00:33:48.650Z,3.86
2023-04-15T00:34:40.166Z,3.87
2023-04-15T00:35:32.703Z,3.91
2023-04-15T00:36:24.476Z,3.89
2023-04-15T00:37:15.982Z,3.88
2023-04-15T00:38:10.187Z,3.88
2023-04-15T00:39:02.876Z,3.87
2023-04-15T00:39:54.392Z,3.83
2023-04-15T00:40:46.156Z,3.82
2023-04-15T00:41:42.451Z,3.85
2023-04-15T00:42:34.910Z,3.85
2023-04-15T00:43:26.645Z,3.79
2023-04-15T00:44:18.853Z,3.76
2023-04-15T00:45:10.980Z,3.77
2023-04-15T00:46:05.907Z,3.77
2023-04-15T00:46:59.426Z,3.77
2023-04-15T00:47:51.281Z,3.77
2023-04-15T00:48:43.789Z,3.72
2023-04-15T00:49:36.634Z,3.71
2023-04-15T00:50:30.571Z,3.69
2023-04-15T00:51:22.292Z,3.66
2023-04-15T00:52:18.516Z,3.65
2023-04-15T00:53:09.997Z,3.67
2023-04-15T00:54:04.333Z,3.65
2023-04-15T00:54:55.985Z,3.71
2023-04-15T00:55:47.569Z,3.72
2023-04-15T00:56:39.886Z,3.68
2023-04-15T00:57:31.669Z,3.67
2023-04-15T00:58:27.972Z,3.66
2023-04-15T00:59:22.866Z,3.65
2023-04-15T01:00:14.573Z,3.65
2023-04-15T01:01:06.690Z,3.61
2023-04-15T01:01:58.412Z,3.61
2023-04-15T01:02:52.632Z,3.58
2023-04-15T01:03:44.974Z,3.56
2023-04-15T01:04:36.992Z,3.56
2023-04-15T01:05:29.443Z,3.55
2023-04-15T01:06:22.154Z,3.44
2023-04-15T01:07:13.950Z,3.44
2023-04-15T01:08:06.140Z,3.46
2023-04-15T01:08:58.774Z,3.44
2023-04-15T01:09:50.890Z,3.42
2023-04-15T01:10:45.356Z,3.40
2023-04-15T01:11:37.776Z,3.34
2023-04-15T01:12:29.477Z,3.33
2023-04-15T01:13:24.233Z,3.34
2023-04-15T01:14:16.109Z,3.25
2023-04-15T01:15:08.369Z,3.30
2023-04-15T01:16:00.951Z,3.25
2023-04-15T01:16:53.183Z,3.24
2023-04-15T01:17:46.788Z,3.16
2023-04-15T01:18:38.817Z,3.17
2023-04-15T01:19:31.643Z,3.13
2023-04-15T01:20:23.406Z,3.12
2023-04-15T01:21:14.887Z,3.15
2023-04-15T01:22:09.405Z,3.16
2023-04-15T01:23:03.600Z,3.18
2023-04-15T01:23:56.868Z,3.17
2023-04-15T01:25:01.052Z,3.16
2023-04-15T01:25:53.745Z,3.18
2023-04-15T01:26:46.451Z,3.12
2023-04-15T01:27:42.262Z,3.07
2023-04-15T01:28:35.406Z,3.08
2023-04-15T01:29:27.485Z,3.07
2023-04-15T01:30:18.936Z,3.05
2023-04-15T01:31:13.661Z,3.05
2023-04-15T01:32:05.822Z,3.03
2023-04-15T01:32:57.431Z,3.05
2023-04-15T01:33:48.941Z,3.02
2023-04-15T01:34:40.395Z,2.99
2023-04-15T01:35:32.222Z,2.97
2023-04-15T01:36:23.915Z,2.94
2023-04-15T01:37:20.061Z,2.89
2023-04-15T01:38:13.588Z,2.90
2023-04-15T01:39:09.708Z,2.87
2023-04-15T01:40:01.175Z,2.86
2023-04-15T01:40:55.381Z,2.83
2023-04-15T01:41:49.368Z,2.86
2023-04-15T01:42:41.166Z,2.87
2023-04-15T01:43:36.348Z,2.91
2023-04-15T01:44:27.794Z,2.81
2023-04-15T01:45:19.578Z,2.85
2023-04-15T01:46:11.105Z,2.90
2023-04-15T01:47:02.686Z,2.85
2023-04-15T01:47:54.698Z,2.80
2023-04-15T01:48:46.758Z,2.79
2023-04-15T01:49:38.195Z,2.76
2023-04-15T01:50:30.816Z,2.71
2023-04-15T01:51:23.517Z,2.72
2023-04-15T01:52:15.671Z,2.66
2023-04-15T01:53:07.365Z,2.65
2023-04-15T01:53:58.903Z,2.69
2023-04-15T01:54:51.286Z,2.67
2023-04-15T01:55:44.028Z,2.66
2023-04-15T01:56:35.571Z,2.68
2023-04-15T01:57:28.359Z,2.65
2023-04-15T01:58:22.526Z,2.69
2023-04-15T01:59:17.042Z,2.70
2023-04-15T02:00:09.244Z,2.64
2023-04-15T02:01:07.111Z,2.59
2023-04-15T02:02:00.383Z,2.64
2023-04-15T02:02:53.324Z,2.59
2023-04-15T02:03:46.814Z,2.55
2023-04-15T02:04:40.258Z,2.54
2023-04-15T02:05:31.895Z,2.54
2023-04-15T02:06:23.466Z,2.54
2023-04-15T02:07:17.681Z,2.49
2023-04-15T02:08:09.569Z,2.45
2023-04-15T02:09:04.236Z,2.43
2023-04-15T02:09:55.618Z,2.45
2023-04-15T02:10:49.218Z,2.44
2023-04-15T02:11:40.799Z,2.42
2023-04-15T02:12:32.255Z,2.37
2023-04-15T02:13:24.042Z,2.36
2023-04-15T02:14:15.544Z,2.37
2023-04-15T02:15:07.673Z,2.32
2023-04-15T02:15:59.732Z,2.30
2023-04-15T02:16:51.541Z,2.27
2023-04-15T02:17:45.910Z,2.26
2023-04-15T02:18:41.610Z,2.29
2023-04-15T02:19:35.539Z,2.32
2023-04-15T02:20:30.282Z,2.33
2023-04-15T02:21:23.163Z,2.35
2023-04-15T02:22:18.403Z,2.31
2023-04-15T02:23:11.658Z,2.32
2023-04-15T02:24:07.443Z,2.32
2023-04-15T02:24:59.055Z,2.29
2023-04-15T02:25:53.923Z,2.32
2023-04-15T02:26:46.643Z,2.35
2023-04-15T02:27:38.411Z,2.37
2023-04-15T02:28:29.897Z,2.34
2023-04-15T02:29:23.644Z,2.33
2023-04-15T02:30:18.065Z,2.29
2023-04-15T02:31:09.628Z,2.28
2023-04-15T02:32:01.660Z,2.24
2023-04-15T02:32:53.282Z,2.29
2023-04-15T02:33:45.068Z,2.34
2023-04-15T02:34:37.613Z,2.38
2023-04-15T02:35:29.121Z,2.41
2023-04-15T02:36:21.319Z,2.40
2023-04-15T02:37:13.756Z,2.36
2023-04-15T02:38:05.216Z,2.40
2023-04-15T02:38:57.543Z,2.40
2023-04-15T02:39:49.093Z,2.42
2023-04-15T02:40:40.635Z,2.45
2023-04-15T02:41:32.027Z,2.46
2023-04-15T02:42:23.768Z,2.48
2023-04-15T02:43:15.475Z,2.48
2023-04-15T02:44:11.347Z,2.50
2023-04-15T02:45:03.409Z,2.49
2023-04-15T02:45:58.600Z,2.45
2023-04-15T02:46:52.513Z,2.43
2023-04-15T02:47:45.824Z,2.43
2023-04-15T02:48:39.588Z,2.46
2023-04-15T02:49:31.148Z,2.43
2023-04-15T02:50:23.578Z,2.35
2023-04-15T02:51:20.329Z,2.26
2023-04-15T02:52:11.920Z,2.24
2023-04-15T02:53:03.339Z,2.17
2023-04-15T02:53:55.092Z,2.18
2023-04-15T02:54:46.656Z,2.17
2023-04-15T02:55:38.133Z,2.18
2023-04-15T02:56:31.021Z,2.18
2023-04-15T02:57:22.511Z,2.13
2023-04-15T02:58:14.004Z,2.14
2023-04-15T02:59:05.462Z,2.15
2023-04-15T02:59:57.046Z,2.10
2023-04-15T03:00:50.909Z,2.03
2023-04-15T03:01:44.228Z,1.97
2023-04-15T03:02:40.103Z,1.99
2023-04-15T03:03:32.639Z,1.98
2023-04-15T03:04:24.281Z,1.98
2023-04-15T03:05:18.292Z,1.98
2023-04-15T03:06:16.220Z,2.00
2023-04-15T03:07:07.701Z,2.05
2023-04-15T03:08:01.648Z,2.07
2023-04-15T03:08:56.927Z,2.10
2023-04-15T03:09:48.624Z,2.10
2023-04-15T03:10:39.993Z,2.15
2023-04-15T03:11:33.648Z,2.17
2023-04-15T03:12:26.197Z,2.21
2023-04-15T03:13:21.603Z,2.22
2023-04-15T03:14:13.497Z,2.19
2023-04-15T03:15:09.789Z,2.20
2023-04-15T03:16:07.328Z,2.17
2023-04-15T03:16:59.541Z,2.11
2023-04-15T03:17:51.139Z,2.06
2023-04-15T03:18:45.354Z,2.03
2023-04-15T03:19:37.507Z,2.00
2023-04-15T03:20:29.340Z,1.98
2023-04-15T03:21:20.863Z,1.99
2023-04-15T03:22:14.305Z,1.98
2023-04-15T03:23:06.215Z,2.00
2023-04-15T03:23:57.644Z,2.03
2023-04-15T03:24:49.839Z,2.02
2023-04-15T03:25:42.108Z,2.01
2023-04-15T03:26:33.896Z,2.04
2023-04-15T03:27:29.882Z,2.06
2023-04-15T03:28:25.219Z,2.02
2023-04-15T03:29:16.922Z,1.99
2023-04-15T03:30:08.966Z,1.98
2023-04-15T03:31:03.656Z,2.01
2023-04-15T03:31:55.659Z,2.02
2023-04-15T03:32:47.537Z,2.01
2023-04-15T03:33:39.329Z,2.02
2023-04-15T03:34:30.728Z,2.03
2023-04-15T03:35:22.445Z,2.04
2023-04-15T03:36:14.171Z,2.05
2023-04-15T03:37:05.651Z,2.03
2023-04-15T03:37:59.681Z,2.05
2023-04-15T03:38:51.359Z,2.03
2023-04-15T03:39:42.878Z,2.08
2023-04-15T03:40:34.262Z,2.06
2023-04-15T03:41:26.673Z,2.05
2023-04-15T03:42:18.092Z,2.04
2023-04-15T03:43:09.749Z,2.01
2023-04-15T03:44:01.292Z,2.02
2023-04-15T03:44:53.000Z,2.01
2023-04-15T03:45:44.462Z,2.03
2023-04-15T03:46:36.185Z,2.05
2023-04-15T03:47:27.627Z,2.04
2023-04-15T03:48:19.397Z,2.04
2023-04-15T03:49:11.099Z,2.01
2023-04-15T03:50:07.113Z,1.90
2023-04-15T03:50:58.638Z,1.86
2023-04-15T03:51:50.644Z,1.82
2023-04-15T03:52:45.579Z,1.81
2023-04-15T03:53:37.060Z,1.76
2023-04-15T03:54:28.618Z,1.71
2023-04-15T03:55:22.657Z,1.68
2023-04-15T03:56:14.275Z,1.68
2023-04-15T03:57:05.721Z,1.69
2023-04-15T03:57:59.592Z,1.71
2023-04-15T03:58:51.054Z,1.73
2023-04-15T03:59:42.450Z,1.72
2023-04-15T04:00:33.899Z,1.71
2023-04-15T04:01:25.387Z,1.64
2023-04-15T04:02:17.254Z,1.61
2023-04-15T04:03:09.111Z,1.55
2023-04-15T04:04:00.976Z,1.57
2023-04-15T04:04:52.596Z,1.53
2023-04-15T04:05:44.720Z,1.57
2023-04-15T04:06:36.233Z,1.61
2023-04-15T04:07:27.855Z,1.56
2023-04-15T04:08:20.604Z,1.56
2023-04-15T04:09:14.482Z,1.54
2023-04-15T04:10:06.624Z,1.52
2023-04-15T04:10:58.105Z,1.52
2023-04-15T04:11:49.528Z,1.54
2023-04-15T04:12:41.434Z,1.53
2023-04-15T04:13:32.838Z,1.47
2023-04-15T04:14:29.907Z,1.44
2023-04-15T04:15:23.836Z,1.41
2023-04-15T04:16:15.512Z,1.38
2023-04-15T04:17:07.274Z,1.37
2023-04-15T04:18:01.321Z,1.38
2023-04-15T04:18:52.725Z,1.38
2023-04-15T04:19:44.389Z,1.39
2023-04-15T04:20:36.265Z,1.42
2023-04-15T04:21:28.019Z,1.50
2023-04-15T04:22:23.804Z,1.51
2023-04-15T04:23:15.507Z,1.56
2023-04-15T04:24:07.102Z,1.56
2023-04-15T04:24:59.931Z,1.56
2023-04-15T04:25:54.015Z,1.57
2023-04-15T04:26:46.865Z,1.59
2023-04-15T04:27:40.916Z,1.58
2023-04-15T04:28:32.558Z,1.51
2023-04-15T04:29:24.178Z,1.49
2023-04-15T04:30:16.163Z,1.49
2023-04-15T04:31:08.016Z,1.45
2023-04-15T04:31:59.780Z,1.43
2023-04-15T04:32:52.990Z,1.42
2023-04-15T04:33:46.872Z,1.38
2023-04-15T04:34:38.412Z,1.36
2023-04-15T04:35:29.905Z,1.37
2023-04-15T04:36:21.543Z,1.40
2023-04-15T04:37:13.168Z,1.38
2023-04-15T04:38:04.951Z,1.31
2023-04-15T04:38:57.137Z,1.26
2023-04-15T04:39:48.652Z,1.27
2023-04-15T04:40:40.483Z,1.28
2023-04-15T04:41:32.347Z,1.21
2023-04-15T04:42:24.012Z,1.28
2023-04-15T04:43:16.316Z,1.32
2023-04-15T04:44:07.744Z,1.35
2023-04-15T04:44:59.170Z,1.38
2023-04-15T04:45:50.661Z,1.39
2023-04-15T04:46:42.079Z,1.35
2023-04-15T04:47:33.623Z,1.32
2023-04-15T04:48:25.235Z,1.29
2023-04-15T04:49:16.788Z,1.27
2023-04-15T04:50:09.063Z,1.33
2023-04-15T04:51:00.892Z,1.34
2023-04-15T04:51:54.652Z,1.27
2023-04-15T04:52:46.498Z,1.29
2023-04-15T04:53:38.211Z,1.30
2023-04-15T04:54:31.086Z,1.32
2023-04-15T04:55:22.578Z,1.31
2023-04-15T04:56:14.027Z,1.31
2023-04-15T04:57:05.507Z,1.32
2023-04-15T04:57:56.923Z,1.28
2023-04-15T04:58:50.169Z,1.27
2023-04-15T04:59:44.074Z,1.27
2023-04-15T05:00:35.898Z,1.29
2023-04-15T05:01:27.802Z,1.26
2023-04-15T05:02:19.452Z,1.24
2023-04-15T05:03:11.707Z,1.21
2023-04-15T05:04:05.180Z,1.23
2023-04-15T05:04:56.942Z,1.26
2023-04-15T05:05:51.876Z,1.28
2023-04-15T05:06:43.522Z,1.27
2023-04-15T05:07:35.010Z,1.24
2023-04-15T05:08:26.501Z,1.25
2023-04-15T05:09:17.970Z,1.30
2023-04-15T05:10:10.076Z,1.33
2023-04-15T05:11:02.502Z,1.36
2023-04-15T05:11:54.206Z,1.39
2023-04-15T05:12:45.849Z,1.42
2023-04-15T05:13:38.707Z,1.43
2023-04-15T05:14:31.064Z,1.40
2023-04-15T05:15:22.506Z,1.43
2023-04-15T05:16:14.104Z,1.45
2023-04-15T05:17:05.686Z,1.45
2023-04-15T05:17:57.197Z,1.47
2023-04-15T05:18:48.630Z,1.48
2023-04-15T05:19:40.137Z,1.47
2023-04-15T05:20:31.652Z,1.41
2023-04-15T05:21:23.460Z,1.39
2023-04-15T05:22:15.167Z,1.37
2023-04-15T05:23:06.843Z,1.43
2023-04-15T05:24:00.907Z,1.48
2023-04-15T05:24:54.469Z,1.51
2023-04-15T05:25:45.998Z,1.56
2023-04-15T05:26:37.623Z,1.60
2023-04-15T05:27:29.144Z,1.63
2023-04-15T05:28:22.993Z,1.66
2023-04-15T05:29:14.471Z,1.68
2023-04-15T05:30:07.205Z,1.69
2023-04-15T05:30:58.943Z,1.72
2023-04-15T05:31:50.938Z,1.76
2023-04-15T05:32:42.456Z,1.76
2023-04-15T05:33:34.211Z,1.72
2023-04-15T05:34:26.201Z,1.74
2023-04-15T05:35:17.800Z,1.74
2023-04-15T05:36:09.739Z,1.78
2023-04-15T05:37:01.343Z,1.72
2023-04-15T05:37:52.781Z,1.73
2023-04-15T05:38:44.271Z,1.79
2023-04-15T05:39:35.967Z,1.79
2023-04-15T05:40:28.063Z,1.75
2023-04-15T05:41:19.945Z,1.80
2023-04-15T05:42:11.715Z,1.85
2023-04-15T05:43:05.375Z,1.85
2023-04-15T05:43:59.306Z,1.93
2023-04-15T05:44:50.940Z,2.00
2023-04-15T05:45:42.579Z,2.07
2023-04-15T05:46:34.175Z,2.13
2023-04-15T05:47:25.592Z,2.17
2023-04-15T05:48:19.148Z,2.23
2023-04-15T05:49:11.981Z,2.26
2023-04-15T05:50:04.416Z,2.26
2023-04-15T05:50:56.025Z,2.26
2023-04-15T05:51:48.243Z,2.35
2023-04-15T05:52:46.698Z,2.42
2023-04-15T05:53:41.939Z,2.46
2023-04-15T05:54:33.517Z,2.50
2023-04-15T05:55:25.066Z,2.59
2023-04-15T05:56:16.838Z,2.68
2023-04-15T05:57:08.233Z,2.76
2023-04-15T05:57:59.862Z,2.81
2023-04-15T05:58:53.377Z,2.84
2023-04-15T05:59:45.294Z,2.89
2023-04-15T06:00:36.790Z,2.96
2023-04-15T06:01:28.444Z,3.02
2023-04-15T06:02:20.266Z,3.09
2023-04-15T06:03:12.412Z,3.12
2023-04-15T06:04:04.151Z,3.17
2023-04-15T06:04:58.205Z,3.23
2023-04-15T06:05:49.799Z,3.30
2023-04-15T06:06:44.533Z,3.34
2023-04-15T06:07:36.816Z,3.40
2023-04-15T06:08:29.608Z,3.45
2023-04-15T06:09:21.520Z,3.48
2023-04-15T06:10:13.029Z,3.50
2023-04-15T06:11:04.555Z,3.55
2023-04-15T06:11:56.917Z,3.56
2023-04-15T06:12:48.644Z,3.57
2023-04-15T06:13:40.113Z,3.67
2023-04-15T06:14:31.788Z,3.74
2023-04-15T06:15:23.329Z,3.81
2023-04-15T06:16:17.425Z,3.87
2023-04-15T06:17:09.111Z,3.89
2023-04-15T06:18:00.598Z,3.98
2023-04-15T06:18:52.113Z,4.05
2023-04-15T06:19:43.539Z,4.13
2023-04-15T06:20:34.970Z,4.22
2023-04-15T06:21:27.008Z,4.28
2023-04-15T06:22:18.434Z,4.34
2023-04-15T06:23:09.879Z,4.40
2023-04-15T06:24:01.702Z,4.46
2023-04-15T06:24:55.553Z,4.54
2023-04-15T06:25:47.262Z,4.61
2023-04-15T06:26:43.892Z,4.69
2023-04-15T06:27:35.374Z,4.75
2023-04-15T06:28:26.776Z,4.81
2023-04-15T06:29:18.229Z,4.88
2023-04-15T06:30:10.232Z,4.95
2023-04-15T06:31:02.191Z,5.01
2023-04-15T06:31:53.710Z,5.08
2023-04-15T06:32:46.453Z,5.12
2023-04-15T06:33:38.192Z,5.19
2023-04-15T06:34:29.986Z,5.26
2023-04-15T06:35:22.362Z,5.34
2023-04-15T06:36:14.093Z,5.42
2023-04-15T06:37:06.396Z,5.48
2023-04-15T06:38:02.379Z,5.55
2023-04-15T06:38:54.120Z,5.61
2023-04-15T06:39:45.810Z,5.71
2023-04-15T06:40:37.631Z,5.78
2023-04-15T06:41:29.214Z,5.86
2023-04-15T06:42:20.860Z,5.95
2023-04-15T06:43:13.224Z,6.00
2023-04-15T06:44:04.970Z,6.06
2023-04-15T06:44:56.678Z,6.12
2023-04-15T06:45:50.900Z,6.19
2023-04-15T06:46:42.365Z,6.25
2023-04-15T06:47:33.792Z,6.31
2023-04-15T06:48:25.240Z,6.35
2023-04-15T06:49:17.127Z,6.39
2023-04-15T06:50:09.200Z,6.45
2023-04-15T06:51:00.909Z,6.50
2023-04-15T06:51:52.728Z,6.56
2023-04-15T06:52:44.355Z,6.62
2023-04-15T06:53:42.162Z,6.63
2023-04-15T06:54:36.183Z,6.67
2023-04-15T06:55:29.804Z,6.73
2023-04-15T06:56:21.865Z,6.77
2023-04-15T06:57:17.840Z,6.81
2023-04-15T06:58:09.250Z,6.82
2023-04-15T06:59:01.610Z,6.86
2023-04-15T06:59:54.559Z,6.90
2023-04-15T07:00:48.422Z,6.92
2023-04-15T07:01:41.347Z,6.96
2023-04-15T07:02:33.421Z,7.00
2023-04-15T07:03:25.026Z,7.02
2023-04-15T07:04:16.593Z,7.06
2023-04-15T07:05:11.322Z,7.10
2023-04-15T07:06:06.326Z,7.13
2023-04-15T07:06:57.753Z,7.15
2023-04-15T07:07:49.248Z,7.16
2023-04-15T07:08:40.764Z,7.18
2023-04-15T07:09:32.649Z,7.24
2023-04-15T07:10:25.543Z,7.29
2023-04-15T07:11:17.446Z,7.33
2023-04-15T07:12:10.919Z,7.38
2023-04-15T07:13:05.938Z,7.41
2023-04-15T07:14:00.415Z,7.47
2023-04-15T07:14:51.873Z,7.50
2023-04-15T07:15:43.313Z,7.55
2023-04-15T07:16:34.840Z,7.62
2023-04-15T07:17:26.321Z,7.67
2023-04-15T07:18:20.409Z,7.69
2023-04-15T07:19:11.876Z,7.70
2023-04-15T07:20:05.059Z,7.76
2023-04-15T07:20:56.470Z,7.83
2023-04-15T07:21:48.081Z,7.88
2023-04-15T07:22:40.725Z,7.91
2023-04-15T07:23:34.476Z,7.95
2023-04-15T07:24:26.843Z,8.04
2023-04-15T07:25:18.992Z,8.07
2023-04-15T07:26:11.281Z,8.10
2023-04-15T07:27:06.041Z,8.16
2023-04-15T07:27:57.523Z,8.21
2023-04-15T07:28:49.338Z,8.27
2023-04-15T07:29:41.274Z,8.30
2023-04-15T07:30:35.969Z,8.33
2023-04-15T07:31:27.688Z,8.38
2023-04-15T07:32:20.209Z,8.42
2023-04-15T07:33:12.101Z,8.52
2023-04-15T07:34:05.041Z,8.61
2023-04-15T07:34:57.001Z,8.71
2023-04-15T07:35:49.156Z,8.75
2023-04-15T07:36:40.805Z,8.83
2023-04-15T07:37:34.305Z,8.92
2023-04-15T07:38:28.344Z,9.03
2023-04-15T07:39:22.593Z,9.09
2023-04-15T07:40:16.391Z,9.22
2023-04-15T07:41:10.565Z,9.30
2023-04-15T07:42:02.358Z,9.39
2023-04-15T07:42:54.004Z,9.44
2023-04-15T07:43:45.815Z,9.47
2023-04-15T07:44:39.874Z,9.50
2023-04-15T07:45:32.036Z,9.56
2023-04-15T07:46:27.320Z,9.62
2023-04-15T07:47:18.916Z,9.62
2023-04-15T07:48:10.890Z,9.67
2023-04-15T07:49:02.581Z,9.72
2023-04-15T07:49:54.343Z,9.81
2023-04-15T07:50:45.881Z,9.87
2023-04-15T07:51:37.395Z,9.92
2023-04-15T07:52:28.901Z,10.01
2023-04-15T07:53:20.558Z,10.08
2023-04-15T07:54:11.975Z,10.14
2023-04-15T07:55:03.654Z,10.15
2023-04-15T07:55:55.109Z,10.16
2023-04-15T07:56:46.734Z,10.22
2023-04-15T07:57:38.466Z,10.23
2023-04-15T07:58:29.942Z,10.21
2023-04-15T07:59:21.530Z,10.16
2023-04-15T08:00:13.696Z,10.20
2023-04-15T08:01:06.853Z,10.23
2023-04-15T08:01:58.418Z,10.21
2023-04-15T08:02:50.253Z,10.31
2023-04-15T08:03:42.329Z,10.40
2023-04-15T08:04:34.250Z,10.39
2023-04-15T08:05:28.670Z,10.41
2023-04-15T08:06:23.025Z,10.34
2023-04-15T08:07:14.754Z,10.42
2023-04-15T08:08:07.177Z,10.52
2023-04-15T08:08:58.701Z,10.51
2023-04-15T08:09:50.261Z,10.54
2023-04-15T08:10:41.759Z,10.51
2023-04-15T08:11:33.292Z,10.54
2023-04-15T08:12:24.888Z,10.59
2023-04-15T08:13:17.241Z,10.66
2023-04-15T08:14:08.674Z,10.75
2023-04-15T08:15:02.820Z,10.82
2023-04-15T08:16:19.457Z,10.91
2023-04-15T08:17:10.870Z,10.94
2023-04-15T08:18:02.433Z,10.96
2023-04-15T08:18:56.251Z,11.01
2023-04-15T08:19:48.371Z,11.04
2023-04-15T08:20:40.447Z,11.03
2023-04-15T08:21:32.226Z,11.05
2023-04-15T08:22:24.058Z,10.98
2023-04-15T08:23:15.804Z,10.90
2023-04-15T08:24:08.213Z,10.72
2023-04-15T08:25:00.936Z,10.81
2023-04-15T08:25:55.334Z,10.88
2023-04-15T08:26:47.424Z,10.91
2023-04-15T08:27:38.992Z,10.87
2023-04-15T08:28:30.928Z,10.90
2023-04-15T08:29:22.360Z,10.91
2023-04-15T08:30:14.500Z,10.91
2023-04-15T08:31:08.338Z,10.92
2023-04-15T08:32:07.809Z,11.00
2023-04-15T08:32:59.411Z,11.05
2023-04-15T08:33:52.582Z,10.99
2023-04-15T08:34:44.147Z,11.00
2023-04-15T08:35:35.638Z,11.01
2023-04-15T08:36:27.172Z,11.02
2023-04-15T08:37:18.931Z,11.08
2023-04-15T08:38:10.675Z,11.11
2023-04-15T08:39:04.839Z,11.17
2023-04-15T08:39:56.716Z,11.21
2023-04-15T08:40:48.267Z,11.25
2023-04-15T08:42:02.815Z,11.31
2023-04-15T08:42:59.585Z,11.28
2023-04-15T08:43:58.664Z,11.33
2023-04-15T08:44:51.129Z,11.40
2023-04-15T08:45:44.364Z,11.48
2023-04-15T08:46:35.954Z,11.37
2023-04-15T08:47:33.834Z,11.40
2023-04-15T08:48:29.607Z,11.30
2023-04-15T08:49:22.677Z,11.31
2023-04-15T08:50:15.196Z,11.30
2023-04-15T08:51:08.480Z,11.39
2023-04-15T08:52:01.032Z,11.41
2023-04-15T08:52:55.645Z,11.42
2023-04-15T08:53:47.772Z,11.48
2023-04-15T08:54:42.146Z,11.39
2023-04-15T08:55:39.992Z,11.32
2023-04-15T08:56:33.338Z,11.47
2023-04-15T08:57:27.646Z,11.47
2023-04-15T08:58:19.997Z,11.52
2023-04-15T08:59:12.425Z,11.55
2023-04-15T09:00:05.736Z,11.53
2023-04-15T09:00:57.593Z,11.56
2023-04-15T09:01:53.516Z,11.53
2023-04-15T09:02:45.352Z,11.47
2023-04-15T09:03:37.657Z,11.51
2023-04-15T09:04:29.837Z,11.46
2023-04-15T09:05:22.988Z,11.50
2023-04-15T09:06:18.387Z,11.57
2023-04-15T09:07:09.851Z,11.54
2023-04-15T09:08:02.484Z,11.59
2023-04-15T09:08:56.911Z,11.63
2023-04-15T09:09:48.790Z,11.68
2023-04-15T09:10:49.368Z,11.69
2023-04-15T09:11:41.843Z,11.70
2023-04-15T09:12:37.076Z,11.76
2023-04-15T09:13:29.133Z,11.74
2023-04-15T09:14:23.181Z,11.67
2023-04-15T09:15:16.349Z,11.75
2023-04-15T09:16:10.582Z,11.87
2023-04-15T09:17:04.361Z,11.93
2023-04-15T09:17:57.068Z,11.91
2023-04-15T09:18:51.372Z,11.91
2023-04-15T09:19:42.970Z,11.97
2023-04-15T09:20:42.544Z,12.04
2023-04-15T09:21:34.539Z,12.14
2023-04-15T09:22:32.621Z,12.10
2023-04-15T09:23:24.230Z,12.14
2023-04-15T09:24:15.669Z,12.15
2023-04-15T09:25:16.194Z,12.16
2023-04-15T09:26:08.302Z,12.19
2023-04-15T09:27:00.557Z,12.29
2023-04-15T09:27:58.984Z,12.29
2023-04-15T09:28:50.626Z,12.19
2023-04-15T09:29:42.872Z,12.20
2023-04-15T09:30:35.195Z,12.34
2023-04-15T09:31:29.983Z,12.43
2023-04-15T09:32:23.418Z,12.41
2023-04-15T09:33:16.421Z,12.36
2023-04-15T09:34:08.157Z,12.42
2023-04-15T09:35:11.141Z,12.46
2023-04-15T09:36:05.823Z,12.53
2023-04-15T09:36:57.687Z,12.54
2023-04-15T09:37:49.952Z,12.51
2023-04-15T09:38:58.892Z,12.45
2023-04-15T09:39:52.993Z,12.42
2023-04-15T09:40:45.694Z,12.38
2023-04-15T09:41:40.381Z,12.30
2023-04-15T09:42:34.248Z,12.30
2023-04-15T09:43:40.783Z,12.22
2023-04-15T09:44:32.606Z,12.24
2023-04-15T09:45:27.159Z,12.16
2023-04-15T09:46:20.960Z,12.11
2023-04-15T09:47:30.385Z,12.01
2023-04-15T09:48:27.163Z,11.94
2023-04-15T09:49:19.452Z,11.89
2023-04-15T09:50:11.082Z,11.84
2023-04-15T09:51:02.658Z,11.84
2023-04-15T09:52:05.756Z,11.78
2023-04-15T09:52:59.504Z,11.72
2023-04-15T09:53:54.876Z,11.73
2023-04-15T09:54:46.590Z,11.63
2023-04-15T09:55:38.122Z,11.59
2023-04-15T09:56:42.424Z,11.62
2023-04-15T09:57:36.513Z,11.65
2023-04-15T09:58:35.175Z,11.60
2023-04-15T09:59:26.659Z,11.64
2023-04-15T10:00:18.085Z,11.56
2023-04-15T10:01:11.492Z,11.61
2023-04-15T10:02:08.892Z,11.66
2023-04-15T10:03:01.208Z,11.70
2023-04-15T10:03:56.107Z,11.74
2023-04-15T10:04:49.075Z,11.72
2023-04-15T10:05:40.893Z,11.77
2023-04-15T10:06:33.903Z,11.83
2023-04-15T10:07:28.117Z,11.87
2023-04-15T10:08:25.093Z,11.85
2023-04-15T10:09:17.720Z,11.84
2023-04-15T10:10:10.800Z,11.80
2023-04-15T10:11:04.494Z,11.79
2023-04-15T10:11:58.282Z,11.81
2023-04-15T10:12:53.589Z,11.82
2023-04-15T10:13:47.307Z,11.86
2023-04-15T10:14:43.143Z,11.78
2023-04-15T10:15:36.134Z,11.78
2023-04-15T10:16:32.825Z,11.75
2023-04-15T10:17:33.790Z,11.79
2023-04-15T10:18:27.213Z,11.83
2023-04-15T10:19:27.539Z,11.89
2023-04-15T10:20:19.808Z,11.88
2023-04-15T10:21:13.998Z,11.97
2023-04-15T10:22:06.580Z,12.07
2023-04-15T10:22:58.418Z,12.15
2023-04-15T10:23:50.418Z,12.25
2023-04-15T10:24:43.422Z,12.26
2023-04-15T10:25:35.228Z,12.28
2023-04-15T10:26:27.306Z,12.24
2023-04-15T10:27:19.726Z,12.30
2023-04-15T10:28:11.902Z,12.32
2023-04-15T10:29:03.823Z,12.30
2023-04-15T10:29:59.904Z,12.36
2023-04-15T10:30:53.494Z,12.37
2023-04-15T10:31:46.993Z,12.33
2023-04-15T10:32:39.956Z,12.37
2023-04-15T10:33:33.478Z,12.45
2023-04-15T10:34:26.237Z,12.56
2023-04-15T10:35:21.819Z,12.63
2023-04-15T10:36:16.494Z,12.63
2023-04-15T10:37:11.667Z,12.63
2023-04-15T10:38:03.258Z,12.63
2023-04-15T10:38:57.629Z,12.59
2023-04-15T10:39:49.079Z,12.65
2023-04-15T10:40:40.849Z,12.59
2023-04-15T10:41:34.478Z,12.62
2023-04-15T10:42:34.478Z,12.62
2023-04-15T10:43:29.082Z,12.73
2023-04-15T10:44:20.686Z,12.83
2023-04-15T10:45:21.189Z,12.95
2023-04-15T10:46:12.915Z,12.98
2023-04-15T10:47:12.750Z,13.01
2023-04-15T10:48:08.118Z,13.05
2023-04-15T10:49:16.526Z,13.02
2023-04-15T10:50:10.242Z,12.97
2023-04-15T10:51:06.970Z,12.92
2023-04-15T10:51:59.597Z,12.90
2023-04-15T10:52:52.652Z,13.00
2023-04-15T10:53:44.331Z,13.11
2023-04-15T10:54:38.777Z,13.15
2023-04-15T10:55:35.575Z,13.16
2023-04-15T10:56:33.513Z,13.15
2023-04-15T10:57:25.321Z,13.19
2023-04-15T10:58:16.790Z,13.20
2023-04-15T10:59:08.199Z,13.33
2023-04-15T11:00:06.649Z,13.28
2023-04-15T11:00:58.068Z,13.29
2023-04-15T11:02:00.002Z,13.43
2023-04-15T11:03:05.009Z,13.48
2023-04-15T11:03:56.716Z,13.58
2023-04-15T11:04:58.661Z,13.61
2023-04-15T11:05:53.549Z,13.59
2023-04-15T11:06:48.215Z,13.56
2023-04-15T11:07:44.853Z,13.64
2023-04-15T11:08:57.196Z,13.77
2023-04-15T11:09:49.840Z,13.69
2023-04-15T11:10:41.278Z,13.74
2023-04-15T11:12:10.414Z,13.62
2023-04-15T11:13:15.886Z,13.62
2023-04-15T11:14:16.061Z,13.58
2023-04-15T11:15:46.736Z,13.40
2023-04-15T11:16:47.106Z,13.32
2023-04-15T11:17:41.943Z,13.20
2023-04-15T11:18:36.750Z,13.28
2023-04-15T11:19:36.134Z,13.33
2023-04-15T11:20:27.659Z,13.37
2023-04-15T11:21:24.214Z,13.43
2023-04-15T11:22:15.891Z,13.47
2023-04-15T11:23:14.387Z,13.53
2023-04-15T11:24:07.011Z,13.49
2023-04-15T11:24:58.519Z,13.48
2023-04-15T11:25:55.581Z,13.52
2023-04-15T11:26:47.109Z,13.47
2023-04-15T11:27:38.710Z,13.58
2023-04-15T11:28:31.118Z,13.57
2023-04-15T11:29:23.044Z,13.60
2023-04-15T11:30:25.867Z,13.65
2023-04-15T11:31:19.897Z,13.74
2023-04-15T11:32:11.637Z,13.74
2023-04-15T11:33:05.529Z,13.78
2023-04-15T11:34:02.768Z,13.67
2023-04-15T11:34:54.125Z,13.56
2023-04-15T11:35:47.472Z,13.65
2023-04-15T11:36:39.115Z,13.77
2023-04-15T11:37:32.162Z,13.72
2023-04-15T11:38:23.693Z,13.84
2023-04-15T11:39:17.944Z,13.89
2023-04-15T11:40:10.303Z,13.98
2023-04-15T11:41:01.833Z,14.05